Accueil
METAR-TAF:

METAR-TAF

Aéroports :

Aéroport international de Bahreïn

Bahreïn, Bahreïn

latitude: 26-16N, longitude: 050-39E, altitude: 2 m

Observation

Le bulletin a été fait il y a 26 minutes, à 07:00 UTC
Vent 9 kt de nord, variant entre nord-ouest et nord/nord-est
Température 24°C
Humidité 57%
Pression 1023 hPa
Visibilité 10 km ou plus
pas de nuages en-dessous de 1500 mètres et pas de cumulonimbus.

METAR: OBBI 140700Z 35009KT 310V020 CAVOK 24/15 Q1023 NOSIG

Heure: 10:26 (07:26 UTC)

Prévision

Le bulletin a été fait il y a 2 heures et 26 minutes, à 05:00 UTC
Prévision valable du 14 à 06 UTC au 15 à 12 UTC
Vent 10 kt de nord/nord-ouest
Visibilité 10 km ou plus
pas de nuages en-dessous de 1500 mètres et pas de cumulonimbus.

TAF: OBBI 140500Z 1406/1512 33010KT CAVOK

Observations et prévisions météorologiques de plus de 4000 aéroports (messages METAR et TAF).

Les stations disponibles sont représentées par des disques jaunes et rouges sur la carte.

Passer la souris dessus pour voir le nom de la station.

Cliquer dessus pour voir les observations et prévisions météorologiques.

Pour changer de carte: cliquez sur les boutons verts avec une croix noire pour zoomer, sur le bouton vert avec un tiret pour effectuer un zoom arrière, ou sur les flèches vertes pour les cartes adjacentes.


METAR-TAF: